sensor_id;sensor_type;location;lat;lon;timestamp;pressure;altitude;pressure_sealevel;temperature;humidity
17785;BME280;9016;53.582;10.062;2023-03-31T00:01:09;100161.31;;;13.49;93.75
17785;BME280;9016;53.582;10.062;2023-03-31T00:03:38;100162.59;;;13.65;93.74
17785;BME280;9016;53.582;10.062;2023-03-31T00:06:11;100157.06;;;13.57;92.52
17785;BME280;9016;53.582;10.062;2023-03-31T00:08:45;100171.03;;;13.61;91.43
17785;BME280;9016;53.582;10.062;2023-03-31T00:11:18;100164.06;;;13.69;91.58
17785;BME280;9016;53.582;10.062;2023-03-31T00:13:47;100163.44;;;13.77;90.34
17785;BME280;9016;53.582;10.062;2023-03-31T00:16:15;100164.63;;;13.84;90.36
17785;BME280;9016;53.582;10.062;2023-03-31T00:19:06;100154.19;;;13.81;89.31
17785;BME280;9016;53.582;10.062;2023-03-31T00:21:36;100153.91;;;13.84;90.42
17785;BME280;9016;53.582;10.062;2023-03-31T00:24:05;100160.00;;;13.86;90.15
17785;BME280;9016;53.582;10.062;2023-03-31T00:26:34;100150.78;;;13.79;89.51
17785;BME280;9016;53.582;10.062;2023-03-31T00:29:05;100149.94;;;13.67;89.66
17785;BME280;9016;53.582;10.062;2023-03-31T00:31:35;100148.00;;;13.69;90.06
17785;BME280;9016;53.582;10.062;2023-03-31T00:34:06;100143.09;;;13.74;89.14
17785;BME280;9016;53.582;10.062;2023-03-31T00:36:34;100135.88;;;13.54;88.03
17785;BME280;9016;53.582;10.062;2023-03-31T00:39:15;100140.88;;;13.48;88.59
17785;BME280;9016;53.582;10.062;2023-03-31T00:41:44;100140.78;;;13.38;88.60
17785;BME280;9016;53.582;10.062;2023-03-31T00:44:14;100131.41;;;13.33;89.79
17785;BME280;9016;53.582;10.062;2023-03-31T00:46:49;100128.25;;;13.39;89.42
17785;BME280;9016;53.582;10.062;2023-03-31T00:49:24;100127.78;;;13.23;89.66
17785;BME280;9016;53.582;10.062;2023-03-31T00:51:58;100120.88;;;13.20;89.79
17785;BME280;9016;53.582;10.062;2023-03-31T00:54:29;100117.56;;;13.28;89.42
17785;BME280;9016;53.582;10.062;2023-03-31T00:57:00;100116.09;;;13.35;89.03
17785;BME280;9016;53.582;10.062;2023-03-31T00:59:36;100117.31;;;13.31;88.05
17785;BME280;9016;53.582;10.062;2023-03-31T01:02:05;100113.31;;;13.25;88.30
17785;BME280;9016;53.582;10.062;2023-03-31T01:04:39;100111.97;;;13.31;87.24
17785;BME280;9016;53.582;10.062;2023-03-31T01:07:15;100106.13;;;13.37;87.43
17785;BME280;9016;53.582;10.062;2023-03-31T01:09:45;100104.28;;;13.37;86.85
17785;BME280;9016;53.582;10.062;2023-03-31T01:12:15;100097.53;;;13.22;86.38
17785;BME280;9016;53.582;10.062;2023-03-31T01:14:45;100096.91;;;13.30;86.44
17785;BME280;9016;53.582;10.062;2023-03-31T01:17:14;100090.81;;;13.28;85.46
17785;BME280;9016;53.582;10.062;2023-03-31T01:19:56;100088.97;;;13.28;86.21
17785;BME280;9016;53.582;10.062;2023-03-31T01:26:14;100078.13;;;13.41;84.30
17785;BME280;9016;53.582;10.062;2023-03-31T01:28:51;100076.25;;;13.52;84.96
17785;BME280;9016;53.582;10.062;2023-03-31T01:31:58;100073.22;;;13.57;84.67
17785;BME280;9016;53.582;10.062;2023-03-31T01:38:11;100071.28;;;13.48;83.51
17785;BME280;9016;53.582;10.062;2023-03-31T01:41:16;100064.50;;;13.44;83.38
17785;BME280;9016;53.582;10.062;2023-03-31T01:43:52;100058.00;;;13.57;83.50
17785;BME280;9016;53.582;10.062;2023-03-31T01:46:26;100059.44;;;13.61;83.30
17785;BME280;9016;53.582;10.062;2023-03-31T01:49:00;100053.88;;;13.53;82.70
17785;BME280;9016;53.582;10.062;2023-03-31T01:51:37;100050.63;;;13.50;83.25
17785;BME280;9016;53.582;10.062;2023-03-31T01:54:14;100047.22;;;13.48;83.37
17785;BME280;9016;53.582;10.062;2023-03-31T01:56:53;100048.06;;;13.37;83.05
17785;BME280;9016;53.582;10.062;2023-03-31T01:59:28;100047.38;;;13.35;84.07
17785;BME280;9016;53.582;10.062;2023-03-31T02:02:00;100050.66;;;13.39;84.31
17785;BME280;9016;53.582;10.062;2023-03-31T02:04:34;100044.72;;;13.35;84.12
17785;BME280;9016;53.582;10.062;2023-03-31T02:07:11;100038.59;;;13.44;84.00
17785;BME280;9016;53.582;10.062;2023-03-31T02:09:45;100045.97;;;13.52;83.69
17785;BME280;9016;53.582;10.062;2023-03-31T02:12:19;100036.09;;;13.52;83.87
17785;BME280;9016;53.582;10.062;2023-03-31T02:14:51;100034.41;;;13.51;83.67
17785;BME280;9016;53.582;10.062;2023-03-31T02:17:23;100026.38;;;13.51;83.60
17785;BME280;9016;53.582;10.062;2023-03-31T02:20:00;100028.00;;;13.43;83.20
17785;BME280;9016;53.582;10.062;2023-03-31T02:22:34;100010.38;;;13.40;83.85
17785;BME280;9016;53.582;10.062;2023-03-31T02:25:05;100016.59;;;13.41;83.90
17785;BME280;9016;53.582;10.062;2023-03-31T02:27:38;100007.34;;;13.34;83.56
17785;BME280;9016;53.582;10.062;2023-03-31T02:30:11;100007.03;;;13.27;83.66
17785;BME280;9016;53.582;10.062;2023-03-31T02:32:41;100004.13;;;13.19;84.68
17785;BME280;9016;53.582;10.062;2023-03-31T02:35:13;100003.41;;;13.17;85.40
17785;BME280;9016;53.582;10.062;2023-03-31T02:37:42;100001.13;;;13.13;85.31
17785;BME280;9016;53.582;10.062;2023-03-31T02:40:16;99996.34;;;13.16;86.06
17785;BME280;9016;53.582;10.062;2023-03-31T02:42:47;99998.78;;;13.19;85.92
17785;BME280;9016;53.582;10.062;2023-03-31T02:45:43;99993.25;;;13.32;85.33
17785;BME280;9016;53.582;10.062;2023-03-31T02:48:15;99991.09;;;13.26;85.13
17785;BME280;9016;53.582;10.062;2023-03-31T02:51:13;99983.72;;;13.18;84.98
17785;BME280;9016;53.582;10.062;2023-03-31T02:54:07;99979.28;;;13.28;84.72
17785;BME280;9016;53.582;10.062;2023-03-31T02:56:50;99974.47;;;13.22;86.11
17785;BME280;9016;53.582;10.062;2023-03-31T02:59:36;99965.13;;;13.17;85.73
17785;BME280;9016;53.582;10.062;2023-03-31T03:02:13;99962.03;;;13.21;86.53
17785;BME280;9016;53.582;10.062;2023-03-31T03:05:01;99969.97;;;13.12;86.55
17785;BME280;9016;53.582;10.062;2023-03-31T03:07:36;99972.66;;;13.12;87.00
17785;BME280;9016;53.582;10.062;2023-03-31T03:10:16;99963.63;;;13.24;86.80
17785;BME280;9016;53.582;10.062;2023-03-31T03:12:53;99965.84;;;13.19;86.54
17785;BME280;9016;53.582;10.062;2023-03-31T03:16:00;99960.09;;;13.23;86.30
17785;BME280;9016;53.582;10.062;2023-03-31T03:18:31;99951.69;;;13.28;86.71
17785;BME280;9016;53.582;10.062;2023-03-31T03:20:59;99950.75;;;13.18;86.88
17785;BME280;9016;53.582;10.062;2023-03-31T03:23:27;99948.53;;;13.23;86.74
17785;BME280;9016;53.582;10.062;2023-03-31T03:25:55;99942.28;;;13.13;86.90
17785;BME280;9016;53.582;10.062;2023-03-31T03:28:23;99945.28;;;13.19;87.66
17785;BME280;9016;53.582;10.062;2023-03-31T03:30:53;99938.75;;;13.12;87.38
17785;BME280;9016;53.582;10.062;2023-03-31T03:33:21;99926.03;;;13.25;87.16
17785;BME280;9016;53.582;10.062;2023-03-31T03:35:50;99929.09;;;13.21;87.25
17785;BME280;9016;53.582;10.062;2023-03-31T03:38:18;99923.88;;;13.19;87.21
17785;BME280;9016;53.582;10.062;2023-03-31T03:40:46;99915.72;;;13.21;87.42
17785;BME280;9016;53.582;10.062;2023-03-31T03:43:19;99932.63;;;13.21;86.63
17785;BME280;9016;53.582;10.062;2023-03-31T03:45:47;99924.41;;;13.13;87.07
17785;BME280;9016;53.582;10.062;2023-03-31T03:48:17;99931.06;;;13.19;86.45
17785;BME280;9016;53.582;10.062;2023-03-31T03:50:45;99920.41;;;13.08;87.43
17785;BME280;9016;53.582;10.062;2023-03-31T03:53:14;99914.66;;;13.12;87.78
17785;BME280;9016;53.582;10.062;2023-03-31T03:55:43;99917.78;;;13.17;88.01
17785;BME280;9016;53.582;10.062;2023-03-31T03:58:14;99913.66;;;13.24;87.08
17785;BME280;9016;53.582;10.062;2023-03-31T04:00:43;99916.13;;;13.16;86.96
17785;BME280;9016;53.582;10.062;2023-03-31T04:03:11;99904.97;;;13.11;87.24
17785;BME280;9016;53.582;10.062;2023-03-31T04:05:41;99909.81;;;13.06;88.18
17785;BME280;9016;53.582;10.062;2023-03-31T04:08:09;99905.19;;;13.08;88.14
17785;BME280;9016;53.582;10.062;2023-03-31T04:10:42;99902.09;;;13.24;87.64
17785;BME280;9016;53.582;10.062;2023-03-31T04:13:11;99895.63;;;13.26;87.41
17785;BME280;9016;53.582;10.062;2023-03-31T04:15:39;99893.66;;;13.28;87.01
17785;BME280;9016;53.582;10.062;2023-03-31T04:18:08;99897.91;;;13.31;87.35
17785;BME280;9016;53.582;10.062;2023-03-31T04:20:45;99879.31;;;13.29;86.74
17785;BME280;9016;53.582;10.062;2023-03-31T04:23:38;99880.25;;;13.19;87.87
17785;BME280;9016;53.582;10.062;2023-03-31T04:26:08;99877.16;;;13.23;87.04
17785;BME280;9016;53.582;10.062;2023-03-31T04:28:37;99870.94;;;13.23;87.09
17785;BME280;9016;53.582;10.062;2023-03-31T04:31:09;99873.38;;;13.26;87.65
17785;BME280;9016;53.582;10.062;2023-03-31T04:33:44;99870.06;;;13.33;87.14
17785;BME280;9016;53.582;10.062;2023-03-31T04:36:15;99864.81;;;13.32;86.95
17785;BME280;9016;53.582;10.062;2023-03-31T04:38:44;99854.25;;;13.30;86.64
17785;BME280;9016;53.582;10.062;2023-03-31T04:41:13;99854.03;;;13.43;87.04
17785;BME280;9016;53.582;10.062;2023-03-31T04:43:42;99846.63;;;13.46;86.20
17785;BME280;9016;53.582;10.062;2023-03-31T04:46:10;99840.88;;;13.51;85.86
17785;BME280;9016;53.582;10.062;2023-03-31T04:48:38;99841.72;;;13.51;85.75
17785;BME280;9016;53.582;10.062;2023-03-31T04:51:07;99835.13;;;13.55;85.40
17785;BME280;9016;53.582;10.062;2023-03-31T04:53:38;99832.75;;;13.62;85.38
17785;BME280;9016;53.582;10.062;2023-03-31T04:56:06;99831.50;;;13.66;84.56
17785;BME280;9016;53.582;10.062;2023-03-31T04:58:35;99825.72;;;13.61;85.14
17785;BME280;9016;53.582;10.062;2023-03-31T05:01:04;99798.75;;;13.53;84.76
17785;BME280;9016;53.582;10.062;2023-03-31T05:03:33;99826.44;;;13.63;84.51
17785;BME280;9016;53.582;10.062;2023-03-31T05:06:01;99810.09;;;13.66;84.71
17785;BME280;9016;53.582;10.062;2023-03-31T05:08:30;99816.38;;;13.55;84.37
17785;BME280;9016;53.582;10.062;2023-03-31T05:11:01;99803.81;;;13.46;84.98
17785;BME280;9016;53.582;10.062;2023-03-31T05:13:29;99806.50;;;13.56;84.88
17785;BME280;9016;53.582;10.062;2023-03-31T05:15:58;99808.94;;;13.59;84.30
17785;BME280;9016;53.582;10.062;2023-03-31T05:18:32;99794.13;;;13.55;83.50
17785;BME280;9016;53.582;10.062;2023-03-31T05:21:11;99798.94;;;13.61;83.00
17785;BME280;9016;53.582;10.062;2023-03-31T05:23:39;99792.03;;;13.58;84.49
17785;BME280;9016;53.582;10.062;2023-03-31T05:26:09;99794.41;;;13.61;84.29
17785;BME280;9016;53.582;10.062;2023-03-31T05:28:37;99791.53;;;13.74;84.06
17785;BME280;9016;53.582;10.062;2023-03-31T05:31:06;99784.44;;;13.63;83.45
17785;BME280;9016;53.582;10.062;2023-03-31T05:33:37;99773.03;;;13.71;83.47
17785;BME280;9016;53.582;10.062;2023-03-31T05:36:08;99768.50;;;13.62;83.45
17785;BME280;9016;53.582;10.062;2023-03-31T05:38:37;99770.78;;;13.66;82.85
17785;BME280;9016;53.582;10.062;2023-03-31T05:41:06;99765.25;;;13.58;83.16
17785;BME280;9016;53.582;10.062;2023-03-31T05:43:37;99767.41;;;13.64;82.62
17785;BME280;9016;53.582;10.062;2023-03-31T05:46:06;99767.25;;;13.66;82.05
17785;BME280;9016;53.582;10.062;2023-03-31T05:48:35;99757.53;;;13.65;82.31
17785;BME280;9016;53.582;10.062;2023-03-31T05:51:04;99766.94;;;13.59;82.80
17785;BME280;9016;53.582;10.062;2023-03-31T05:53:32;99764.03;;;13.72;82.68
17785;BME280;9016;53.582;10.062;2023-03-31T05:56:02;99765.19;;;13.79;82.34
17785;BME280;9016;53.582;10.062;2023-03-31T05:58:32;99759.66;;;13.71;81.69
17785;BME280;9016;53.582;10.062;2023-03-31T06:01:04;99755.44;;;13.78;81.81
17785;BME280;9016;53.582;10.062;2023-03-31T06:03:33;99752.91;;;13.76;81.70
17785;BME280;9016;53.582;10.062;2023-03-31T06:06:02;99746.00;;;13.64;81.51
17785;BME280;9016;53.582;10.062;2023-03-31T06:08:31;99752.72;;;13.59;82.79
17785;BME280;9016;53.582;10.062;2023-03-31T06:10:59;99754.31;;;13.71;81.83
17785;BME280;9016;53.582;10.062;2023-03-31T06:13:30;99746.88;;;13.84;81.77
17785;BME280;9016;53.582;10.062;2023-03-31T06:15:59;99741.25;;;13.97;81.53
17785;BME280;9016;53.582;10.062;2023-03-31T06:18:32;99736.75;;;13.97;80.77
17785;BME280;9016;53.582;10.062;2023-03-31T06:21:01;99736.22;;;14.03;80.26
17785;BME280;9016;53.582;10.062;2023-03-31T06:23:30;99737.31;;;14.01;80.41
17785;BME280;9016;53.582;10.062;2023-03-31T06:26:00;99743.69;;;14.00;79.60
17785;BME280;9016;53.582;10.062;2023-03-31T06:28:29;99735.66;;;14.09;79.21
17785;BME280;9016;53.582;10.062;2023-03-31T06:31:01;99736.56;;;14.29;78.57
17785;BME280;9016;53.582;10.062;2023-03-31T06:33:33;99738.78;;;14.24;78.73
17785;BME280;9016;53.582;10.062;2023-03-31T06:36:02;99738.34;;;14.19;77.77
17785;BME280;9016;53.582;10.062;2023-03-31T06:38:31;99736.22;;;14.22;78.83
17785;BME280;9016;53.582;10.062;2023-03-31T06:40:59;99731.91;;;14.31;77.66
17785;BME280;9016;53.582;10.062;2023-03-31T06:43:28;99735.84;;;14.36;78.37
17785;BME280;9016;53.582;10.062;2023-03-31T06:45:56;99734.13;;;14.26;77.01
17785;BME280;9016;53.582;10.062;2023-03-31T06:48:28;99730.75;;;14.33;77.94
17785;BME280;9016;53.582;10.062;2023-03-31T06:51:00;99737.13;;;14.51;77.26
17785;BME280;9016;53.582;10.062;2023-03-31T06:53:29;99726.25;;;14.43;76.73
17785;BME280;9016;53.582;10.062;2023-03-31T06:55:59;99724.72;;;14.50;76.40
17785;BME280;9016;53.582;10.062;2023-03-31T06:58:27;99725.72;;;14.59;76.82
17785;BME280;9016;53.582;10.062;2023-03-31T07:00:57;99731.91;;;14.59;76.37
17785;BME280;9016;53.582;10.062;2023-03-31T07:03:26;99729.06;;;14.70;75.87
17785;BME280;9016;53.582;10.062;2023-03-31T07:05:55;99727.94;;;14.73;75.95
17785;BME280;9016;53.582;10.062;2023-03-31T07:08:25;99715.22;;;14.84;75.75
17785;BME280;9016;53.582;10.062;2023-03-31T07:10:55;99719.88;;;14.92;75.63
17785;BME280;9016;53.582;10.062;2023-03-31T07:13:25;99722.38;;;15.03;75.43
17785;BME280;9016;53.582;10.062;2023-03-31T07:15:54;99710.31;;;15.17;74.71
17785;BME280;9016;53.582;10.062;2023-03-31T07:18:22;99705.41;;;15.12;74.55
17785;BME280;9016;53.582;10.062;2023-03-31T07:21:01;99715.22;;;15.31;74.32
17785;BME280;9016;53.582;10.062;2023-03-31T07:23:35;99706.28;;;15.03;74.55
17785;BME280;9016;53.582;10.062;2023-03-31T07:26:03;99711.50;;;15.05;75.61
17785;BME280;9016;53.582;10.062;2023-03-31T07:28:32;99703.53;;;15.22;75.16
17785;BME280;9016;53.582;10.062;2023-03-31T07:31:01;99706.13;;;15.51;73.92
17785;BME280;9016;53.582;10.062;2023-03-31T07:33:29;99697.34;;;15.58;73.06
17785;BME280;9016;53.582;10.062;2023-03-31T07:35:57;99695.16;;;15.71;72.28
17785;BME280;9016;53.582;10.062;2023-03-31T07:38:38;99692.19;;;15.65;71.27
17785;BME280;9016;53.582;10.062;2023-03-31T07:41:09;99682.91;;;15.59;72.03
17785;BME280;9016;53.582;10.062;2023-03-31T07:43:37;99688.53;;;15.66;71.41
17785;BME280;9016;53.582;10.062;2023-03-31T07:46:05;99680.97;;;15.52;71.54
17785;BME280;9016;53.582;10.062;2023-03-31T07:48:34;99684.53;;;15.33;71.63
17785;BME280;9016;53.582;10.062;2023-03-31T07:51:03;99677.88;;;15.10;72.84
17785;BME280;9016;53.582;10.062;2023-03-31T07:53:32;99676.66;;;14.95;74.16
17785;BME280;9016;53.582;10.062;2023-03-31T07:56:01;99681.63;;;14.80;75.55
17785;BME280;9016;53.582;10.062;2023-03-31T07:58:30;99679.44;;;14.57;76.95
17785;BME280;9016;53.582;10.062;2023-03-31T08:00:58;99670.97;;;14.42;79.09
17785;BME280;9016;53.582;10.062;2023-03-31T08:03:26;99672.66;;;14.43;80.63
17785;BME280;9016;53.582;10.062;2023-03-31T08:05:54;99673.78;;;14.50;81.15
17785;BME280;9016;53.582;10.062;2023-03-31T08:08:23;99661.53;;;14.38;82.16
17785;BME280;9016;53.582;10.062;2023-03-31T08:10:51;99667.72;;;14.39;82.12
17785;BME280;9016;53.582;10.062;2023-03-31T08:13:21;99668.16;;;14.34;83.03
17785;BME280;9016;53.582;10.062;2023-03-31T08:15:48;99658.25;;;14.16;84.31
17785;BME280;9016;53.582;10.062;2023-03-31T08:18:17;99655.72;;;14.24;84.65
17785;BME280;9016;53.582;10.062;2023-03-31T08:20:45;99658.69;;;14.30;84.87
17785;BME280;9016;53.582;10.062;2023-03-31T08:23:15;99650.25;;;14.35;85.32
17785;BME280;9016;53.582;10.062;2023-03-31T08:25:43;99649.41;;;14.34;84.88
17785;BME280;9016;53.582;10.062;2023-03-31T08:28:11;99643.88;;;14.36;84.98
17785;BME280;9016;53.582;10.062;2023-03-31T08:30:41;99644.84;;;14.44;84.92
17785;BME280;9016;53.582;10.062;2023-03-31T08:33:09;99646.56;;;14.45;84.57
17785;BME280;9016;53.582;10.062;2023-03-31T08:35:38;99643.03;;;14.35;84.15
17785;BME280;9016;53.582;10.062;2023-03-31T08:38:06;99642.75;;;14.48;84.22
17785;BME280;9016;53.582;10.062;2023-03-31T08:40:34;99646.25;;;14.48;84.12
17785;BME280;9016;53.582;10.062;2023-03-31T08:43:10;99640.91;;;14.48;82.34
17785;BME280;9016;53.582;10.062;2023-03-31T08:45:45;99643.44;;;14.50;83.87
17785;BME280;9016;53.582;10.062;2023-03-31T08:48:20;99637.25;;;14.40;83.89
17785;BME280;9016;53.582;10.062;2023-03-31T08:50:59;99630.19;;;14.39;84.00
17785;BME280;9016;53.582;10.062;2023-03-31T08:53:32;99630.06;;;14.40;84.47
17785;BME280;9016;53.582;10.062;2023-03-31T08:56:04;99623.41;;;14.44;83.55
17785;BME280;9016;53.582;10.062;2023-03-31T08:58:38;99627.09;;;14.43;83.67
17785;BME280;9016;53.582;10.062;2023-03-31T09:01:15;99622.75;;;14.33;82.97
17785;BME280;9016;53.582;10.062;2023-03-31T09:04:03;99618.81;;;14.27;82.80
17785;BME280;9016;53.582;10.062;2023-03-31T09:06:40;99612.31;;;14.20;83.76
17785;BME280;9016;53.582;10.062;2023-03-31T09:09:14;99614.53;;;14.25;84.61
17785;BME280;9016;53.582;10.062;2023-03-31T09:11:49;99611.84;;;14.25;85.63
17785;BME280;9016;53.582;10.062;2023-03-31T09:14:25;99606.94;;;14.01;86.38
17785;BME280;9016;53.582;10.062;2023-03-31T09:17:03;99596.50;;;14.08;86.69
17785;BME280;9016;53.582;10.062;2023-03-31T09:19:36;99607.78;;;14.11;86.41
17785;BME280;9016;53.582;10.062;2023-03-31T09:22:10;99590.28;;;14.26;86.63
17785;BME280;9016;53.582;10.062;2023-03-31T09:24:46;99589.88;;;14.40;87.07
17785;BME280;9016;53.582;10.062;2023-03-31T09:27:18;99590.84;;;14.49;86.32
17785;BME280;9016;53.582;10.062;2023-03-31T09:29:50;99585.31;;;14.50;85.75
17785;BME280;9016;53.582;10.062;2023-03-31T09:32:23;99584.34;;;14.51;85.12
17785;BME280;9016;53.582;10.062;2023-03-31T09:34:55;99573.63;;;14.51;86.20
17785;BME280;9016;53.582;10.062;2023-03-31T09:37:29;99566.28;;;14.53;85.51
17785;BME280;9016;53.582;10.062;2023-03-31T09:39:59;99572.19;;;14.57;85.17
17785;BME280;9016;53.582;10.062;2023-03-31T09:42:33;99563.59;;;14.53;84.97
17785;BME280;9016;53.582;10.062;2023-03-31T09:45:02;99557.94;;;14.56;85.01
17785;BME280;9016;53.582;10.062;2023-03-31T09:47:34;99562.72;;;14.62;84.79
17785;BME280;9016;53.582;10.062;2023-03-31T09:50:06;99564.28;;;14.55;84.78
17785;BME280;9016;53.582;10.062;2023-03-31T09:52:39;99559.34;;;14.60;84.18
17785;BME280;9016;53.582;10.062;2023-03-31T09:55:17;99549.00;;;14.65;84.79
17785;BME280;9016;53.582;10.062;2023-03-31T09:58:05;99539.50;;;14.80;84.02
17785;BME280;9016;53.582;10.062;2023-03-31T10:00:34;99548.75;;;14.96;83.75
17785;BME280;9016;53.582;10.062;2023-03-31T10:03:05;99543.94;;;14.99;83.24
17785;BME280;9016;53.582;10.062;2023-03-31T10:05:36;99542.75;;;15.02;83.43
17785;BME280;9016;53.582;10.062;2023-03-31T10:08:17;99533.16;;;15.09;82.89
17785;BME280;9016;53.582;10.062;2023-03-31T10:10:48;99537.50;;;15.10;83.25
17785;BME280;9016;53.582;10.062;2023-03-31T10:13:19;99533.69;;;15.12;83.09
17785;BME280;9016;53.582;10.062;2023-03-31T10:15:51;99520.88;;;15.06;82.70
17785;BME280;9016;53.582;10.062;2023-03-31T10:18:31;99532.25;;;15.18;82.97
17785;BME280;9016;53.582;10.062;2023-03-31T10:21:02;99522.91;;;15.39;81.47
17785;BME280;9016;53.582;10.062;2023-03-31T10:23:33;99529.72;;;15.34;81.39
17785;BME280;9016;53.582;10.062;2023-03-31T10:26:02;99519.50;;;15.47;82.23
17785;BME280;9016;53.582;10.062;2023-03-31T10:28:33;99522.13;;;15.56;81.68
17785;BME280;9016;53.582;10.062;2023-03-31T10:31:03;99518.72;;;15.54;81.82
17785;BME280;9016;53.582;10.062;2023-03-31T10:33:39;99521.81;;;15.42;81.76
17785;BME280;9016;53.582;10.062;2023-03-31T10:36:20;99510.34;;;15.40;80.45
17785;BME280;9016;53.582;10.062;2023-03-31T10:38:52;99509.66;;;15.38;81.14
17785;BME280;9016;53.582;10.062;2023-03-31T10:41:23;99507.91;;;15.64;80.89
17785;BME280;9016;53.582;10.062;2023-03-31T10:43:53;99497.69;;;15.85;79.96
17785;BME280;9016;53.582;10.062;2023-03-31T10:46:39;99497.34;;;16.06;77.55
17785;BME280;9016;53.582;10.062;2023-03-31T10:49:15;99497.66;;;16.03;76.77
17785;BME280;9016;53.582;10.062;2023-03-31T10:51:52;99488.78;;;15.84;77.97
17785;BME280;9016;53.582;10.062;2023-03-31T10:54:20;99490.94;;;15.81;78.31
17785;BME280;9016;53.582;10.062;2023-03-31T10:56:50;99498.63;;;15.76;78.26
17785;BME280;9016;53.582;10.062;2023-03-31T10:59:32;99482.19;;;15.79;77.94
17785;BME280;9016;53.582;10.062;2023-03-31T11:02:16;99476.47;;;15.56;77.02
17785;BME280;9016;53.582;10.062;2023-03-31T11:04:58;99486.63;;;15.35;79.32
17785;BME280;9016;53.582;10.062;2023-03-31T11:07:40;99483.41;;;15.32;79.60
17785;BME280;9016;53.582;10.062;2023-03-31T11:10:29;99488.19;;;15.38;79.82
17785;BME280;9016;53.582;10.062;2023-03-31T11:13:06;99475.44;;;15.40;80.14
17785;BME280;9016;53.582;10.062;2023-03-31T11:15:42;99462.78;;;15.32;80.13
17785;BME280;9016;53.582;10.062;2023-03-31T11:18:33;99466.41;;;15.41;79.78
17785;BME280;9016;53.582;10.062;2023-03-31T11:21:15;99462.03;;;15.40;80.68
17785;BME280;9016;53.582;10.062;2023-03-31T11:23:51;99467.09;;;15.43;80.21
17785;BME280;9016;53.582;10.062;2023-03-31T11:26:27;99459.91;;;15.43;80.00
17785;BME280;9016;53.582;10.062;2023-03-31T11:29:20;99457.88;;;15.28;81.00
17785;BME280;9016;53.582;10.062;2023-03-31T11:32:29;99465.75;;;15.29;81.23
17785;BME280;9016;53.582;10.062;2023-03-31T11:35:11;99456.09;;;15.19;81.24
17785;BME280;9016;53.582;10.062;2023-03-31T11:37:56;99450.41;;;15.22;81.26
17785;BME280;9016;53.582;10.062;2023-03-31T11:40:41;99453.56;;;15.35;81.17
17785;BME280;9016;53.582;10.062;2023-03-31T11:43:18;99451.16;;;15.41;80.32
17785;BME280;9016;53.582;10.062;2023-03-31T11:45:52;99438.16;;;15.37;80.17
17785;BME280;9016;53.582;10.062;2023-03-31T11:48:32;99437.34;;;15.36;79.68
17785;BME280;9016;53.582;10.062;2023-03-31T11:51:08;99433.47;;;15.39;80.31
17785;BME280;9016;53.582;10.062;2023-03-31T11:53:41;99430.09;;;15.37;80.90
17785;BME280;9016;53.582;10.062;2023-03-31T11:56:12;99429.81;;;15.40;80.61
17785;BME280;9016;53.582;10.062;2023-03-31T11:58:44;99429.94;;;15.38;80.54
17785;BME280;9016;53.582;10.062;2023-03-31T12:01:20;99432.13;;;15.17;80.71
17785;BME280;9016;53.582;10.062;2023-03-31T12:03:55;99431.88;;;14.93;83.32
17785;BME280;9016;53.582;10.062;2023-03-31T12:06:29;99427.31;;;14.76;84.94
17785;BME280;9016;53.582;10.062;2023-03-31T12:09:06;99428.16;;;14.76;86.71
17785;BME280;9016;53.582;10.062;2023-03-31T12:11:42;99426.34;;;14.77;85.80
17785;BME280;9016;53.582;10.062;2023-03-31T12:14:22;99417.75;;;14.73;86.33
17785;BME280;9016;53.582;10.062;2023-03-31T12:16:55;99417.53;;;14.57;86.41
17785;BME280;9016;53.582;10.062;2023-03-31T12:19:27;99424.97;;;14.46;86.41
17785;BME280;9016;53.582;10.062;2023-03-31T12:22:03;99425.94;;;14.45;87.60
17785;BME280;9016;53.582;10.062;2023-03-31T12:24:37;99411.41;;;14.47;87.55
17785;BME280;9016;53.582;10.062;2023-03-31T12:27:09;99417.19;;;14.43;88.02
17785;BME280;9016;53.582;10.062;2023-03-31T12:29:42;99418.94;;;14.25;88.99
17785;BME280;9016;53.582;10.062;2023-03-31T12:32:14;99404.16;;;14.30;89.66
17785;BME280;9016;53.582;10.062;2023-03-31T12:34:48;99402.41;;;14.39;89.39
17785;BME280;9016;53.582;10.062;2023-03-31T12:37:57;99402.66;;;14.45;89.51
17785;BME280;9016;53.582;10.062;2023-03-31T12:40:43;99396.06;;;14.40;88.93
17785;BME280;9016;53.582;10.062;2023-03-31T12:43:50;99389.84;;;14.39;88.77
17785;BME280;9016;53.582;10.062;2023-03-31T12:46:31;99389.91;;;14.30;88.54
17785;BME280;9016;53.582;10.062;2023-03-31T12:49:15;99383.25;;;14.34;88.58
17785;BME280;9016;53.582;10.062;2023-03-31T12:51:57;99384.97;;;14.25;89.07
17785;BME280;9016;53.582;10.062;2023-03-31T12:54:56;99378.94;;;14.14;89.05
17785;BME280;9016;53.582;10.062;2023-03-31T12:57:30;99382.03;;;14.19;90.10
17785;BME280;9016;53.582;10.062;2023-03-31T13:00:20;99377.22;;;14.22;88.97
17785;BME280;9016;53.582;10.062;2023-03-31T13:02:49;99385.13;;;14.24;89.53
17785;BME280;9016;53.582;10.062;2023-03-31T13:05:43;99376.44;;;14.12;90.53
17785;BME280;9016;53.582;10.062;2023-03-31T13:11:14;99366.09;;;14.27;90.21
17785;BME280;9016;53.582;10.062;2023-03-31T13:13:59;99359.47;;;14.48;89.04
17785;BME280;9016;53.582;10.062;2023-03-31T13:16:28;99361.88;;;14.69;88.21
17785;BME280;9016;53.582;10.062;2023-03-31T13:18:56;99348.63;;;14.85;87.64
17785;BME280;9016;53.582;10.062;2023-03-31T13:21:25;99348.34;;;14.88;86.37
17785;BME280;9016;53.582;10.062;2023-03-31T13:23:58;99351.00;;;15.06;85.32
17785;BME280;9016;53.582;10.062;2023-03-31T13:26:42;99346.94;;;15.19;84.68
17785;BME280;9016;53.582;10.062;2023-03-31T13:29:22;99343.78;;;15.24;84.39
17785;BME280;9016;53.582;10.062;2023-03-31T13:32:20;99339.88;;;15.36;83.71
17785;BME280;9016;53.582;10.062;2023-03-31T13:34:53;99341.25;;;15.40;83.99
17785;BME280;9016;53.582;10.062;2023-03-31T13:37:44;99338.84;;;15.37;82.84
17785;BME280;9016;53.582;10.062;2023-03-31T13:40:31;99339.63;;;15.47;83.45
17785;BME280;9016;53.582;10.062;2023-03-31T13:43:33;99339.63;;;15.47;84.38